createdAt,value
2018-12-18T00:02:18.131Z,3.54
2018-12-18T00:04:46.397Z,3.49
2018-12-18T00:07:14.680Z,3.55
2018-12-18T00:09:42.940Z,3.58
2018-12-18T00:12:11.220Z,3.53
2018-12-18T00:14:39.509Z,3.38
2018-12-18T00:17:07.781Z,3.40
2018-12-18T00:19:36.049Z,3.30
2018-12-18T00:22:04.532Z,3.15
2018-12-18T00:24:32.853Z,3.28
2018-12-18T00:27:01.139Z,3.30
2018-12-18T00:29:29.408Z,3.26
2018-12-18T00:31:57.664Z,3.22
2018-12-18T00:34:25.928Z,3.24
2018-12-18T00:36:54.191Z,3.29
2018-12-18T00:39:22.445Z,3.21
2018-12-18T00:56:47.475Z,3.24
2018-12-18T00:59:15.795Z,3.31
2018-12-18T01:01:46.155Z,3.41
2018-12-18T01:04:14.555Z,3.49
2018-12-18T01:06:42.923Z,3.55
2018-12-18T01:09:11.213Z,3.56
2018-12-18T01:11:39.472Z,3.57
2018-12-18T01:14:07.837Z,3.60
2018-12-18T01:16:36.194Z,3.60
2018-12-18T01:19:04.640Z,3.55
2018-12-18T01:21:32.979Z,3.55
2018-12-18T01:24:01.284Z,3.50
2018-12-18T01:26:29.629Z,3.51
2018-12-18T01:28:58.267Z,3.38
2018-12-18T01:31:26.672Z,3.44
2018-12-18T01:33:59.277Z,3.28
2018-12-18T01:36:25.404Z,3.30
2018-12-18T01:38:53.681Z,3.44
2018-12-18T01:41:21.995Z,3.48
2018-12-18T01:43:50.263Z,3.44
2018-12-18T01:46:18.588Z,3.37
2018-12-18T01:48:46.904Z,3.33
2018-12-18T01:51:15.221Z,3.32
2018-12-18T01:53:43.487Z,3.42
2018-12-18T01:56:11.767Z,3.45
2018-12-18T01:58:40.109Z,3.43
2018-12-18T02:01:08.385Z,3.35
2018-12-18T02:03:36.675Z,3.28
2018-12-18T02:06:04.937Z,3.20
2018-12-18T02:08:33.204Z,3.18
2018-12-18T02:11:01.480Z,3.18
2018-12-18T02:13:29.740Z,3.06
2018-12-18T02:15:57.996Z,3.03
2018-12-18T02:18:26.255Z,2.99
2018-12-18T02:20:54.531Z,2.70
2018-12-18T02:23:22.775Z,2.47
2018-12-18T02:25:51.035Z,2.37
2018-12-18T02:28:19.339Z,2.37
2018-12-18T02:30:47.673Z,2.54
2018-12-18T02:33:15.930Z,2.65
2018-12-18T02:35:44.208Z,2.85
2018-12-18T02:40:54.985Z,3.08
2018-12-18T02:43:23.348Z,3.15
2018-12-18T02:45:51.605Z,3.18
2018-12-18T02:48:20.187Z,3.19
2018-12-18T02:50:48.457Z,3.19
2018-12-18T02:53:16.744Z,3.23
2018-12-18T02:55:45.008Z,3.07
2018-12-18T02:58:13.285Z,3.15
2018-12-18T03:00:41.563Z,3.15
2018-12-18T03:03:09.842Z,3.00
2018-12-18T03:05:38.100Z,2.97
2018-12-18T03:08:06.376Z,3.06
2018-12-18T03:10:34.645Z,3.04
2018-12-18T03:13:02.927Z,3.12
2018-12-18T03:15:31.304Z,3.11
2018-12-18T03:17:59.582Z,3.08
2018-12-18T03:20:27.915Z,2.85
2018-12-18T03:22:56.173Z,2.93
2018-12-18T03:25:24.453Z,3.01
2018-12-18T03:27:52.803Z,3.06
2018-12-18T03:30:21.068Z,3.04
2018-12-18T03:35:31.331Z,3.10
2018-12-18T03:37:59.612Z,3.12
2018-12-18T03:40:27.873Z,2.97
2018-12-18T03:42:56.147Z,2.71
2018-12-18T03:45:24.430Z,2.66
2018-12-18T03:47:52.687Z,2.68
2018-12-18T03:50:20.984Z,2.85
2018-12-18T03:52:49.246Z,3.00
2018-12-18T03:55:17.530Z,2.97
2018-12-18T03:57:45.911Z,3.01
2018-12-18T04:00:14.183Z,3.04
2018-12-18T04:02:42.460Z,2.97
2018-12-18T04:05:10.726Z,2.92
2018-12-18T04:07:38.992Z,2.99
2018-12-18T04:10:07.491Z,2.94
2018-12-18T04:12:35.997Z,2.97
2018-12-18T04:15:05.184Z,2.90
2018-12-18T04:17:33.451Z,2.89
2018-12-18T04:20:01.768Z,2.83
2018-12-18T04:22:30.230Z,2.83
2018-12-18T04:24:58.476Z,2.81
2018-12-18T04:27:26.752Z,2.76
2018-12-18T04:29:55.010Z,2.77
2018-12-18T04:32:23.279Z,2.73
2018-12-18T04:34:51.631Z,2.64
2018-12-18T04:37:20.001Z,2.76
2018-12-18T04:39:48.272Z,2.79
2018-12-18T04:42:16.543Z,2.88
2018-12-18T04:44:44.803Z,2.92
2018-12-18T04:47:13.207Z,2.88
2018-12-18T04:49:41.601Z,2.90
2018-12-18T04:52:09.981Z,2.96
2018-12-18T04:54:38.250Z,2.95
2018-12-18T04:57:06.525Z,2.93
2018-12-18T04:59:34.783Z,3.02
2018-12-18T05:02:03.057Z,2.99
2018-12-18T05:04:31.317Z,3.16
2018-12-18T05:06:59.600Z,3.07
2018-12-18T05:09:27.867Z,3.19
2018-12-18T05:11:56.129Z,3.03
2018-12-18T05:14:24.402Z,3.08
2018-12-18T05:16:52.660Z,3.08
2018-12-18T05:19:20.997Z,3.06
2018-12-18T05:21:49.256Z,3.08
2018-12-18T05:24:17.579Z,3.09
2018-12-18T05:26:45.872Z,3.09
2018-12-18T05:29:14.143Z,3.06
2018-12-18T05:31:42.413Z,3.07
2018-12-18T05:34:10.693Z,3.06
2018-12-18T05:36:38.953Z,3.11
2018-12-18T05:39:07.725Z,3.12
2018-12-18T05:41:36.007Z,3.13
2018-12-18T05:44:04.499Z,3.14
2018-12-18T05:46:32.763Z,3.17
2018-12-18T05:49:01.024Z,3.20
2018-12-18T05:51:29.306Z,3.15
2018-12-18T05:53:57.554Z,3.15
2018-12-18T05:56:25.816Z,3.20
2018-12-18T05:58:54.080Z,3.29
2018-12-18T06:01:22.454Z,3.36
2018-12-18T06:03:50.742Z,3.42
2018-12-18T06:06:19.067Z,3.47
2018-12-18T06:08:47.365Z,3.57
2018-12-18T06:11:15.850Z,3.57
2018-12-18T06:13:44.338Z,3.58
2018-12-18T06:16:12.746Z,3.57
2018-12-18T06:18:41.114Z,3.53
2018-12-18T06:21:09.478Z,3.54
2018-12-18T06:23:37.878Z,3.59
2018-12-18T06:26:06.263Z,3.69
2018-12-18T06:28:34.632Z,3.69
2018-12-18T06:31:03.012Z,3.74
2018-12-18T06:33:31.303Z,3.79
2018-12-18T06:35:59.639Z,3.56
2018-12-18T06:38:28.032Z,3.51
2018-12-18T06:40:56.344Z,3.59
2018-12-18T06:43:24.632Z,3.63
2018-12-18T06:45:52.898Z,3.72
2018-12-18T06:48:21.151Z,3.69
2018-12-18T06:50:49.424Z,3.65
2018-12-18T06:53:17.684Z,3.57
2018-12-18T06:55:45.991Z,3.58
2018-12-18T06:58:14.282Z,3.59
2018-12-18T07:00:42.543Z,3.67
2018-12-18T07:03:10.864Z,3.75
2018-12-18T07:05:39.137Z,3.77
2018-12-18T07:08:07.426Z,3.76
2018-12-18T07:10:35.695Z,3.78
2018-12-18T07:13:04.007Z,3.63
2018-12-18T07:15:32.480Z,3.75
2018-12-18T07:18:00.748Z,3.80
2018-12-18T07:20:29.024Z,3.83
2018-12-18T07:22:57.283Z,3.87
2018-12-18T07:25:25.579Z,3.88
2018-12-18T07:27:53.840Z,3.93
2018-12-18T07:30:22.251Z,3.98
2018-12-18T07:32:50.604Z,3.98
2018-12-18T07:35:23.307Z,3.91
2018-12-18T07:37:49.239Z,3.92
2018-12-18T07:40:17.603Z,3.93
2018-12-18T07:42:45.860Z,3.92
2018-12-18T07:45:14.163Z,4.02
2018-12-18T07:47:42.434Z,3.91
2018-12-18T07:50:10.764Z,3.89
2018-12-18T07:52:39.019Z,3.92
2018-12-18T07:55:07.851Z,3.93
2018-12-18T07:57:36.112Z,3.73
2018-12-18T08:00:05.450Z,3.59
2018-12-18T08:02:33.872Z,3.57
2018-12-18T08:05:02.167Z,3.61
2018-12-18T08:07:30.417Z,3.69
2018-12-18T08:09:58.666Z,3.84
2018-12-18T08:12:26.936Z,3.83
2018-12-18T08:14:55.189Z,3.90
2018-12-18T08:17:23.444Z,3.96
2018-12-18T08:19:51.717Z,4.06
2018-12-18T08:22:20.043Z,4.10
2018-12-18T08:24:48.377Z,4.01
2018-12-18T08:27:16.714Z,4.00
2018-12-18T08:29:45.065Z,3.94
2018-12-18T08:32:13.359Z,3.98
2018-12-18T08:34:41.715Z,3.96
2018-12-18T08:37:10.024Z,4.02
2018-12-18T08:39:38.362Z,4.06
2018-12-18T08:42:06.635Z,4.14
2018-12-18T08:44:34.957Z,4.25
2018-12-18T08:47:03.290Z,4.34
2018-12-18T08:49:31.623Z,4.37
2018-12-18T08:51:59.887Z,4.46
2018-12-18T08:54:28.140Z,4.56
2018-12-18T08:56:56.448Z,4.54
2018-12-18T08:59:24.708Z,4.55
2018-12-18T09:01:53.129Z,4.55
2018-12-18T09:04:21.379Z,4.62
2018-12-18T09:06:49.715Z,4.66
2018-12-18T09:09:17.983Z,4.50
2018-12-18T09:11:46.245Z,4.58
2018-12-18T09:14:14.509Z,4.64
2018-12-18T09:16:48.328Z,4.64
2018-12-18T09:19:16.592Z,4.72
2018-12-18T09:21:44.852Z,4.68
2018-12-18T09:24:13.117Z,4.77
2018-12-18T09:26:41.389Z,4.80
2018-12-18T09:29:09.660Z,4.89
2018-12-18T09:31:37.920Z,4.89
2018-12-18T09:34:06.183Z,4.88
2018-12-18T09:36:34.461Z,4.78
2018-12-18T09:39:08.369Z,4.81
2018-12-18T09:41:39.500Z,4.71
2018-12-18T09:46:58.299Z,4.61
2018-12-18T09:49:26.552Z,4.48
2018-12-18T09:51:54.805Z,4.47
2018-12-18T09:54:23.138Z,4.58
2018-12-18T09:56:51.391Z,4.40
2018-12-18T09:59:19.643Z,4.40
2018-12-18T10:01:47.905Z,4.30
2018-12-18T10:04:16.148Z,4.28
2018-12-18T10:06:45.185Z,4.15
2018-12-18T10:09:13.593Z,4.18
2018-12-18T10:11:41.836Z,4.04
2018-12-18T10:14:10.112Z,4.07
2018-12-18T10:16:38.417Z,4.08
2018-12-18T10:19:06.704Z,4.14
2018-12-18T10:21:34.980Z,4.26
2018-12-18T10:24:03.228Z,4.27
2018-12-18T10:26:31.537Z,4.24
2018-12-18T10:29:00.542Z,4.40
2018-12-18T10:31:28.808Z,4.51
2018-12-18T10:33:57.061Z,4.44
2018-12-18T10:36:25.352Z,4.59
2018-12-18T10:38:53.651Z,4.62
2018-12-18T10:41:21.909Z,4.75
2018-12-18T10:43:50.198Z,4.83
2018-12-18T10:46:18.460Z,4.92
2018-12-18T10:48:46.728Z,4.93
2018-12-18T10:51:15.059Z,4.94
2018-12-18T10:53:43.296Z,5.00
2018-12-18T10:56:11.555Z,5.01
2018-12-18T10:58:39.808Z,5.12
2018-12-18T11:04:05.125Z,5.26
2018-12-18T11:06:33.550Z,5.24
2018-12-18T11:09:01.869Z,5.29
2018-12-18T11:11:30.136Z,5.27
2018-12-18T11:13:58.397Z,5.37
2018-12-18T11:16:26.781Z,5.26
2018-12-18T11:18:55.059Z,5.18
2018-12-18T11:21:23.415Z,5.27
2018-12-18T11:23:51.712Z,5.37
2018-12-18T11:26:19.967Z,5.43
2018-12-18T11:28:48.243Z,5.45
2018-12-18T11:31:16.579Z,5.50
2018-12-18T11:33:44.919Z,5.58
2018-12-18T11:36:16.499Z,5.63
2018-12-18T11:38:43.610Z,5.64
2018-12-18T11:41:11.937Z,5.63
2018-12-18T11:43:40.608Z,5.63
2018-12-18T11:46:09.054Z,5.64
2018-12-18T11:48:37.656Z,5.65
2018-12-18T11:51:06.115Z,5.70
2018-12-18T11:53:34.556Z,5.62
2018-12-18T11:56:02.971Z,5.73
2018-12-18T11:58:31.341Z,5.71
2018-12-18T12:00:59.726Z,5.74
2018-12-18T12:03:28.122Z,5.75
2018-12-18T12:05:56.603Z,5.81
2018-12-18T12:08:25.046Z,5.78
2018-12-18T12:10:53.374Z,5.71
2018-12-18T12:13:21.872Z,5.66
2018-12-18T12:15:50.190Z,5.54
2018-12-18T12:18:18.578Z,5.53
2018-12-18T12:20:46.915Z,5.58
2018-12-18T12:23:15.226Z,5.65
2018-12-18T12:25:43.572Z,5.69
2018-12-18T12:28:12.097Z,5.78
2018-12-18T12:30:40.432Z,5.89
2018-12-18T12:33:08.764Z,5.96
2018-12-18T12:35:37.131Z,5.97
2018-12-18T12:38:05.528Z,6.01
2018-12-18T12:40:33.989Z,6.00
2018-12-18T12:43:02.343Z,6.01
2018-12-18T12:45:30.700Z,5.97
2018-12-18T12:47:59.035Z,5.97
2018-12-18T12:50:27.408Z,5.89
2018-12-18T12:52:55.886Z,5.87
2018-12-18T12:55:24.220Z,5.91
2018-12-18T12:57:52.553Z,5.85
2018-12-18T13:00:20.904Z,5.83
2018-12-18T13:02:49.207Z,5.69
2018-12-18T13:05:17.607Z,5.69
2018-12-18T13:07:45.922Z,5.67
2018-12-18T13:10:14.298Z,5.53
2018-12-18T13:12:42.611Z,5.51
2018-12-18T13:15:10.917Z,5.52
2018-12-18T13:17:39.302Z,5.51
2018-12-18T13:20:07.750Z,5.40
2018-12-18T13:22:36.088Z,5.41
2018-12-18T13:25:05.349Z,5.33
2018-12-18T13:27:33.699Z,5.38
2018-12-18T13:30:02.824Z,5.33
2018-12-18T13:32:31.166Z,5.37
2018-12-18T13:34:59.677Z,5.40
2018-12-18T13:37:28.061Z,5.40
2018-12-18T13:39:56.375Z,5.35
2018-12-18T13:42:24.718Z,5.36
2018-12-18T13:44:53.274Z,5.38
2018-12-18T13:47:27.149Z,5.40
2018-12-18T13:49:52.358Z,5.38
2018-12-18T13:52:20.856Z,5.40
2018-12-18T13:54:49.298Z,5.39
2018-12-18T13:57:17.727Z,5.38
2018-12-18T13:59:46.205Z,5.35
2018-12-18T14:02:14.540Z,5.36
2018-12-18T14:04:43.143Z,5.24
2018-12-18T14:07:11.535Z,5.25
2018-12-18T14:09:40.247Z,5.21
2018-12-18T14:12:08.591Z,5.25
2018-12-18T14:14:36.912Z,5.26
2018-12-18T14:19:47.725Z,5.21
2018-12-18T14:22:16.021Z,5.16
2018-12-18T14:24:44.353Z,5.05
2018-12-18T14:27:12.715Z,5.11
2018-12-18T14:29:40.991Z,5.07
2018-12-18T14:32:09.260Z,5.05
2018-12-18T14:34:37.536Z,5.04
2018-12-18T14:37:05.796Z,4.98
2018-12-18T14:39:34.061Z,5.04
2018-12-18T14:42:02.338Z,5.10
2018-12-18T14:44:30.611Z,5.15
2018-12-18T14:46:58.994Z,5.10
2018-12-18T14:49:27.316Z,5.13
2018-12-18T14:51:55.575Z,5.17
2018-12-18T14:54:23.903Z,5.21
2018-12-18T14:56:52.163Z,5.12
2018-12-18T14:59:22.474Z,5.12
2018-12-18T15:01:50.789Z,5.14
2018-12-18T15:04:19.108Z,5.15
2018-12-18T15:06:47.488Z,5.18
2018-12-18T15:09:15.808Z,5.16
2018-12-18T15:11:44.241Z,5.17
2018-12-18T15:14:12.750Z,5.18
2018-12-18T15:16:41.176Z,5.18
2018-12-18T15:19:09.566Z,5.22
2018-12-18T15:21:38.016Z,5.21
2018-12-18T15:24:06.414Z,5.12
2018-12-18T15:26:34.754Z,4.99
2018-12-18T15:29:03.116Z,5.03
2018-12-18T15:31:31.494Z,5.07
2018-12-18T15:33:59.870Z,5.06
2018-12-18T15:36:28.195Z,5.03
2018-12-18T15:38:56.642Z,5.09
2018-12-18T15:41:24.983Z,5.11
2018-12-18T15:43:53.407Z,5.06
2018-12-18T15:46:21.755Z,5.06
2018-12-18T15:48:50.070Z,4.96
2018-12-18T15:51:18.385Z,4.95
2018-12-18T15:53:46.725Z,4.99
2018-12-18T15:56:15.078Z,4.40
2018-12-18T15:58:43.365Z,5.09
2018-12-18T16:01:11.616Z,5.13
2018-12-18T16:03:39.887Z,4.98
2018-12-18T16:06:08.140Z,4.95
2018-12-18T16:08:36.401Z,4.94
2018-12-18T16:11:04.669Z,4.81
2018-12-18T16:13:32.936Z,4.78
2018-12-18T16:16:01.261Z,4.79
2018-12-18T16:18:29.553Z,4.75
2018-12-18T16:20:57.824Z,4.80
2018-12-18T16:23:26.124Z,4.72
2018-12-18T16:25:54.379Z,4.67
2018-12-18T16:28:22.652Z,4.73
2018-12-18T16:30:50.929Z,4.71
2018-12-18T16:33:19.207Z,4.80
2018-12-18T16:35:47.498Z,4.81
2018-12-18T16:38:15.758Z,4.84
2018-12-18T16:40:44.064Z,4.83
2018-12-18T16:43:12.343Z,4.84
2018-12-18T16:45:40.601Z,4.94
2018-12-18T16:48:08.863Z,4.96
2018-12-18T16:50:37.136Z,4.90
2018-12-18T16:53:05.443Z,4.88
2018-12-18T16:55:33.719Z,4.68
2018-12-18T16:58:01.995Z,4.71
2018-12-18T17:00:30.273Z,4.77
2018-12-18T17:02:58.519Z,4.80
2018-12-18T17:05:26.828Z,4.72
2018-12-18T17:07:55.100Z,4.70
2018-12-18T17:10:23.354Z,4.60
2018-12-18T17:12:56.180Z,4.57
2018-12-18T17:15:24.744Z,4.61
2018-12-18T17:17:53.077Z,4.58
2018-12-18T17:20:21.417Z,4.63
2018-12-18T17:22:49.686Z,4.62
2018-12-18T17:25:17.936Z,4.65
2018-12-18T17:27:46.190Z,4.66
2018-12-18T17:30:14.452Z,4.67
2018-12-18T17:32:42.704Z,4.70
2018-12-18T17:35:11.064Z,4.70
2018-12-18T17:37:39.482Z,4.73
2018-12-18T17:40:08.023Z,4.74
2018-12-18T17:42:36.331Z,4.76
2018-12-18T17:45:06.041Z,4.75
2018-12-18T17:47:34.399Z,4.76
2018-12-18T17:50:02.737Z,4.77
2018-12-18T17:52:30.975Z,4.80
2018-12-18T17:54:59.228Z,4.76
2018-12-18T17:57:27.491Z,4.67
2018-12-18T17:59:55.739Z,4.55
2018-12-18T18:02:23.993Z,4.52
2018-12-18T18:04:52.315Z,4.47
2018-12-18T18:07:20.649Z,4.40
2018-12-18T18:09:48.980Z,4.36
2018-12-18T18:12:17.247Z,4.36
2018-12-18T18:14:45.512Z,4.22
2018-12-18T18:17:13.776Z,4.08
2018-12-18T18:19:42.023Z,4.06
2018-12-18T18:22:10.323Z,3.91
2018-12-18T18:24:38.721Z,3.87
2018-12-18T18:27:07.011Z,3.81
2018-12-18T18:29:35.306Z,3.79
2018-12-18T18:32:03.617Z,3.70
2018-12-18T18:34:31.964Z,3.59
2018-12-18T18:37:00.424Z,3.51
2018-12-18T18:39:28.806Z,3.17
2018-12-18T18:41:57.341Z,3.02
2018-12-18T18:44:26.062Z,2.97
2018-12-18T18:46:55.337Z,2.81
2018-12-18T18:49:23.767Z,2.70
2018-12-18T18:51:52.607Z,2.68
2018-12-18T18:54:21.186Z,2.66
2018-12-18T18:56:49.750Z,2.58
2018-12-18T18:59:18.169Z,2.47
2018-12-18T19:01:46.649Z,2.45
2018-12-18T19:04:14.991Z,2.27
2018-12-18T19:06:44.043Z,2.29
2018-12-18T19:09:12.435Z,2.28
2018-12-18T19:11:41.272Z,2.17
2018-12-18T19:14:09.794Z,2.24
2018-12-18T19:16:38.685Z,2.29
2018-12-18T19:19:08.336Z,2.27
2018-12-18T19:21:37.495Z,2.28
2018-12-18T19:24:06.316Z,2.25
2018-12-18T19:26:35.672Z,2.22
2018-12-18T19:29:04.549Z,2.24
2018-12-18T19:31:33.732Z,2.02
2018-12-18T19:34:03.676Z,2.04
2018-12-18T19:36:33.417Z,2.09
2018-12-18T19:39:06.698Z,2.12
2018-12-18T19:41:36.697Z,2.11
2018-12-18T19:44:06.633Z,2.06
2018-12-18T19:46:36.418Z,1.92
2018-12-18T19:49:06.647Z,1.76
2018-12-18T19:51:36.583Z,1.76
2018-12-18T19:54:06.660Z,1.84
2018-12-18T19:56:36.694Z,1.94
2018-12-18T19:59:10.760Z,1.99
2018-12-18T20:01:38.178Z,2.00
2018-12-18T20:04:08.113Z,2.02
2018-12-18T20:06:37.853Z,1.90
2018-12-18T20:09:08.198Z,1.77
2018-12-18T20:11:38.828Z,1.65
2018-12-18T20:14:08.701Z,1.54
2018-12-18T20:16:38.542Z,1.42
2018-12-18T20:19:08.228Z,1.34
2018-12-18T20:21:37.872Z,1.22
2018-12-18T20:24:07.617Z,1.13
2018-12-18T20:26:37.431Z,1.08
2018-12-18T20:29:07.559Z,0.98
2018-12-18T20:31:37.757Z,0.91
2018-12-18T20:34:07.047Z,0.82
2018-12-18T20:36:36.982Z,0.64
2018-12-18T20:39:09.073Z,0.59
2018-12-18T20:41:38.769Z,0.60
2018-12-18T20:44:08.622Z,0.53
2018-12-18T20:46:37.891Z,0.53
2018-12-18T20:49:07.704Z,0.63
2018-12-18T20:51:37.607Z,0.69
2018-12-18T20:54:07.673Z,0.80
2018-12-18T20:56:37.545Z,0.88
2018-12-18T20:59:06.887Z,0.94
2018-12-18T21:01:37.117Z,0.83
2018-12-18T21:04:06.429Z,0.73
2018-12-18T21:06:35.716Z,0.69
2018-12-18T21:09:09.038Z,0.51
2018-12-18T21:14:20.783Z,0.33
2018-12-18T21:16:50.162Z,0.32
2018-12-18T21:19:19.924Z,0.26
2018-12-18T21:21:49.136Z,0.31
2018-12-18T21:24:18.384Z,0.22
2018-12-18T21:26:47.679Z,0.21
2018-12-18T21:29:16.829Z,0.24
2018-12-18T21:31:46.153Z,0.21
2018-12-18T21:34:15.395Z,0.13
2018-12-18T21:36:44.515Z,0.19
2018-12-18T21:39:14.501Z,0.15
2018-12-18T21:41:43.575Z,0.10
2018-12-18T21:44:12.431Z,0.08
2018-12-18T21:46:41.543Z,0.10
2018-12-18T21:49:09.907Z,-0.03
2018-12-18T21:51:38.643Z,-0.04
2018-12-18T21:54:07.039Z,0.07
2018-12-18T21:56:35.351Z,0.32
2018-12-18T21:59:03.677Z,0.50
2018-12-18T22:01:31.990Z,0.57
2018-12-18T22:04:00.282Z,0.71
2018-12-18T22:06:28.629Z,0.82
2018-12-18T22:08:56.929Z,0.86
2018-12-18T22:11:25.332Z,0.92
2018-12-18T22:13:53.602Z,1.01
2018-12-18T22:16:21.885Z,1.06
2018-12-18T22:18:50.147Z,1.05
2018-12-18T22:21:18.596Z,1.07
2018-12-18T22:23:46.860Z,1.13
2018-12-18T22:26:15.232Z,1.12
2018-12-18T22:28:43.532Z,1.14
2018-12-18T22:31:11.786Z,1.12
2018-12-18T22:33:40.060Z,1.04
2018-12-18T22:36:08.311Z,1.05
2018-12-18T22:38:36.608Z,0.95
2018-12-18T22:41:04.887Z,0.87
2018-12-18T22:43:33.148Z,0.77
2018-12-18T22:46:01.418Z,0.66
2018-12-18T22:48:29.698Z,0.67
2018-12-18T22:50:57.960Z,0.59
2018-12-18T22:53:26.209Z,0.55
2018-12-18T22:55:54.455Z,0.50
2018-12-18T22:58:22.731Z,0.53
2018-12-18T23:03:40.660Z,0.50
2018-12-18T23:06:08.996Z,0.46
2018-12-18T23:08:37.320Z,0.51
2018-12-18T23:11:05.595Z,0.61
2018-12-18T23:13:33.863Z,0.56
2018-12-18T23:16:02.135Z,0.59
2018-12-18T23:18:30.395Z,0.59
2018-12-18T23:20:58.664Z,0.50
2018-12-18T23:23:26.927Z,0.52
2018-12-18T23:25:55.196Z,0.49
2018-12-18T23:28:23.475Z,0.47
2018-12-18T23:30:51.737Z,0.41
2018-12-18T23:33:20.007Z,0.41
2018-12-18T23:35:48.392Z,0.45
2018-12-18T23:38:16.676Z,0.42
2018-12-18T23:40:45.043Z,0.42
2018-12-18T23:43:13.379Z,0.41
2018-12-18T23:45:41.679Z,0.49
2018-12-18T23:48:09.964Z,0.55
2018-12-18T23:50:38.235Z,0.61
2018-12-18T23:53:06.498Z,0.64
2018-12-18T23:55:34.778Z,0.43
2018-12-18T23:58:03.035Z,0.43
